sensor_id;sensor_type;location;lat;lon;timestamp;P1;durP1;ratioP1;P2;durP2;ratioP2
5277;SDS011;2662;51.194;6.614;2023-01-26T00:00:44;70.68;;;21.25;;
5277;SDS011;2662;51.194;6.614;2023-01-26T00:03:12;61.13;;;21.55;;
5277;SDS011;2662;51.194;6.614;2023-01-26T00:05:39;66.03;;;22.45;;
5277;SDS011;2662;51.194;6.614;2023-01-26T00:08:06;65.15;;;23.80;;
5277;SDS011;2662;51.194;6.614;2023-01-26T00:10:34;65.43;;;23.50;;
5277;SDS011;2662;51.194;6.614;2023-01-26T00:13:01;62.10;;;22.90;;
5277;SDS011;2662;51.194;6.614;2023-01-26T00:15:28;65.07;;;22.43;;
5277;SDS011;2662;51.194;6.614;2023-01-26T00:17:56;58.53;;;22.00;;
5277;SDS011;2662;51.194;6.614;2023-01-26T00:20:24;62.60;;;22.17;;
5277;SDS011;2662;51.194;6.614;2023-01-26T00:22:51;62.17;;;22.93;;
5277;SDS011;2662;51.194;6.614;2023-01-26T00:25:18;64.83;;;24.27;;
5277;SDS011;2662;51.194;6.614;2023-01-26T00:27:45;57.60;;;22.13;;
5277;SDS011;2662;51.194;6.614;2023-01-26T00:30:12;63.60;;;23.20;;
5277;SDS011;2662;51.194;6.614;2023-01-26T00:32:39;57.50;;;22.60;;
5277;SDS011;2662;51.194;6.614;2023-01-26T00:35:06;55.67;;;22.77;;
5277;SDS011;2662;51.194;6.614;2023-01-26T00:37:35;71.23;;;24.30;;
5277;SDS011;2662;51.194;6.614;2023-01-26T00:40:02;69.47;;;23.40;;
5277;SDS011;2662;51.194;6.614;2023-01-26T00:42:29;59.87;;;21.87;;
5277;SDS011;2662;51.194;6.614;2023-01-26T00:44:55;59.20;;;22.23;;
5277;SDS011;2662;51.194;6.614;2023-01-26T00:47:22;60.07;;;21.50;;
5277;SDS011;2662;51.194;6.614;2023-01-26T00:49:49;61.23;;;21.47;;
5277;SDS011;2662;51.194;6.614;2023-01-26T00:52:15;61.10;;;22.83;;
5277;SDS011;2662;51.194;6.614;2023-01-26T00:54:44;59.97;;;23.13;;
5277;SDS011;2662;51.194;6.614;2023-01-26T00:57:10;65.83;;;22.60;;
5277;SDS011;2662;51.194;6.614;2023-01-26T00:59:37;58.30;;;21.20;;
5277;SDS011;2662;51.194;6.614;2023-01-26T01:02:04;61.53;;;22.77;;
5277;SDS011;2662;51.194;6.614;2023-01-26T01:04:31;54.93;;;21.50;;
5277;SDS011;2662;51.194;6.614;2023-01-26T01:06:57;58.63;;;21.53;;
5277;SDS011;2662;51.194;6.614;2023-01-26T01:09:24;56.27;;;19.87;;
5277;SDS011;2662;51.194;6.614;2023-01-26T01:11:52;62.70;;;20.50;;
5277;SDS011;2662;51.194;6.614;2023-01-26T01:14:19;62.47;;;20.37;;
5277;SDS011;2662;51.194;6.614;2023-01-26T01:16:45;52.77;;;20.40;;
5277;SDS011;2662;51.194;6.614;2023-01-26T01:19:12;62.23;;;20.40;;
5277;SDS011;2662;51.194;6.614;2023-01-26T01:21:40;61.03;;;19.90;;
5277;SDS011;2662;51.194;6.614;2023-01-26T01:24:07;52.33;;;19.93;;
5277;SDS011;2662;51.194;6.614;2023-01-26T01:26:34;48.30;;;19.27;;
5277;SDS011;2662;51.194;6.614;2023-01-26T01:29:02;58.40;;;18.80;;
5277;SDS011;2662;51.194;6.614;2023-01-26T01:31:29;52.93;;;20.27;;
5277;SDS011;2662;51.194;6.614;2023-01-26T01:33:56;59.33;;;21.07;;
5277;SDS011;2662;51.194;6.614;2023-01-26T01:36:22;60.87;;;20.73;;
5277;SDS011;2662;51.194;6.614;2023-01-26T01:38:50;58.33;;;21.17;;
5277;SDS011;2662;51.194;6.614;2023-01-26T01:41:17;54.80;;;20.10;;
5277;SDS011;2662;51.194;6.614;2023-01-26T01:43:46;56.83;;;20.47;;
5277;SDS011;2662;51.194;6.614;2023-01-26T01:46:16;59.43;;;20.37;;
5277;SDS011;2662;51.194;6.614;2023-01-26T01:48:49;66.03;;;22.47;;
5277;SDS011;2662;51.194;6.614;2023-01-26T01:51:20;64.13;;;21.60;;
5277;SDS011;2662;51.194;6.614;2023-01-26T01:53:51;62.40;;;21.90;;
5277;SDS011;2662;51.194;6.614;2023-01-26T01:56:22;60.47;;;21.57;;
5277;SDS011;2662;51.194;6.614;2023-01-26T01:58:53;56.90;;;21.70;;
5277;SDS011;2662;51.194;6.614;2023-01-26T02:01:23;62.67;;;21.23;;
5277;SDS011;2662;51.194;6.614;2023-01-26T02:03:51;58.33;;;23.13;;
5277;SDS011;2662;51.194;6.614;2023-01-26T02:06:21;63.53;;;21.50;;
5277;SDS011;2662;51.194;6.614;2023-01-26T02:08:54;63.87;;;21.03;;
5277;SDS011;2662;51.194;6.614;2023-01-26T02:11:22;64.40;;;21.50;;
5277;SDS011;2662;51.194;6.614;2023-01-26T02:13:52;60.20;;;19.70;;
5277;SDS011;2662;51.194;6.614;2023-01-26T02:16:21;60.77;;;20.30;;
5277;SDS011;2662;51.194;6.614;2023-01-26T02:18:49;56.70;;;20.93;;
5277;SDS011;2662;51.194;6.614;2023-01-26T02:21:16;64.83;;;22.73;;
5277;SDS011;2662;51.194;6.614;2023-01-26T02:23:47;65.77;;;21.67;;
5277;SDS011;2662;51.194;6.614;2023-01-26T02:26:23;73.93;;;23.07;;
5277;SDS011;2662;51.194;6.614;2023-01-26T02:28:52;63.27;;;24.07;;
5277;SDS011;2662;51.194;6.614;2023-01-26T02:31:19;60.70;;;22.40;;
5277;SDS011;2662;51.194;6.614;2023-01-26T02:33:48;61.47;;;21.10;;
5277;SDS011;2662;51.194;6.614;2023-01-26T02:36:16;62.53;;;20.30;;
5277;SDS011;2662;51.194;6.614;2023-01-26T02:38:55;66.10;;;21.73;;
5277;SDS011;2662;51.194;6.614;2023-01-26T02:41:43;59.83;;;19.97;;
5277;SDS011;2662;51.194;6.614;2023-01-26T02:44:28;53.90;;;18.87;;
5277;SDS011;2662;51.194;6.614;2023-01-26T02:46:56;60.43;;;18.87;;
5277;SDS011;2662;51.194;6.614;2023-01-26T02:49:23;51.00;;;19.63;;
5277;SDS011;2662;51.194;6.614;2023-01-26T02:52:06;57.77;;;18.67;;
5277;SDS011;2662;51.194;6.614;2023-01-26T02:54:33;61.17;;;18.43;;
5277;SDS011;2662;51.194;6.614;2023-01-26T02:57:15;55.00;;;18.40;;
5277;SDS011;2662;51.194;6.614;2023-01-26T02:59:42;52.30;;;18.33;;
5277;SDS011;2662;51.194;6.614;2023-01-26T03:02:09;59.43;;;19.23;;
5277;SDS011;2662;51.194;6.614;2023-01-26T03:04:36;59.20;;;19.30;;
5277;SDS011;2662;51.194;6.614;2023-01-26T03:07:02;56.07;;;19.17;;
5277;SDS011;2662;51.194;6.614;2023-01-26T03:09:29;56.60;;;19.57;;
5277;SDS011;2662;51.194;6.614;2023-01-26T03:11:56;58.50;;;20.13;;
5277;SDS011;2662;51.194;6.614;2023-01-26T03:14:24;61.23;;;19.70;;
5277;SDS011;2662;51.194;6.614;2023-01-26T03:16:50;57.10;;;19.23;;
5277;SDS011;2662;51.194;6.614;2023-01-26T03:19:17;56.07;;;18.00;;
5277;SDS011;2662;51.194;6.614;2023-01-26T03:22:01;59.10;;;19.47;;
5277;SDS011;2662;51.194;6.614;2023-01-26T03:24:45;62.67;;;20.33;;
5277;SDS011;2662;51.194;6.614;2023-01-26T03:27:32;55.40;;;19.37;;
5277;SDS011;2662;51.194;6.614;2023-01-26T03:30:05;59.90;;;19.70;;
5277;SDS011;2662;51.194;6.614;2023-01-26T03:32:33;57.57;;;19.73;;
5277;SDS011;2662;51.194;6.614;2023-01-26T03:35:00;62.10;;;20.30;;
5277;SDS011;2662;51.194;6.614;2023-01-26T03:37:26;56.23;;;18.63;;
5277;SDS011;2662;51.194;6.614;2023-01-26T03:39:58;61.50;;;19.60;;
5277;SDS011;2662;51.194;6.614;2023-01-26T03:42:43;57.60;;;19.50;;
5277;SDS011;2662;51.194;6.614;2023-01-26T03:45:28;63.93;;;20.07;;
5277;SDS011;2662;51.194;6.614;2023-01-26T03:48:13;61.00;;;20.30;;
5277;SDS011;2662;51.194;6.614;2023-01-26T03:50:57;65.27;;;19.73;;
5277;SDS011;2662;51.194;6.614;2023-01-26T03:53:41;64.90;;;19.60;;
5277;SDS011;2662;51.194;6.614;2023-01-26T03:56:26;56.03;;;19.50;;
5277;SDS011;2662;51.194;6.614;2023-01-26T03:58:56;62.57;;;20.37;;
5277;SDS011;2662;51.194;6.614;2023-01-26T04:01:33;62.63;;;19.80;;
5277;SDS011;2662;51.194;6.614;2023-01-26T04:04:01;56.17;;;19.70;;
5277;SDS011;2662;51.194;6.614;2023-01-26T04:06:46;62.53;;;20.33;;
5277;SDS011;2662;51.194;6.614;2023-01-26T04:09:31;69.13;;;22.60;;
5277;SDS011;2662;51.194;6.614;2023-01-26T04:11:58;70.50;;;20.60;;
5277;SDS011;2662;51.194;6.614;2023-01-26T04:14:25;67.93;;;20.17;;
5277;SDS011;2662;51.194;6.614;2023-01-26T04:17:10;71.33;;;21.73;;
5277;SDS011;2662;51.194;6.614;2023-01-26T04:19:54;65.97;;;21.77;;
5277;SDS011;2662;51.194;6.614;2023-01-26T04:22:39;71.80;;;21.50;;
5277;SDS011;2662;51.194;6.614;2023-01-26T04:25:09;61.73;;;20.30;;
5277;SDS011;2662;51.194;6.614;2023-01-26T04:27:38;67.23;;;20.20;;
5277;SDS011;2662;51.194;6.614;2023-01-26T04:30:06;60.27;;;20.27;;
5277;SDS011;2662;51.194;6.614;2023-01-26T04:32:35;63.50;;;20.37;;
5277;SDS011;2662;51.194;6.614;2023-01-26T04:35:02;61.53;;;20.13;;
5277;SDS011;2662;51.194;6.614;2023-01-26T04:37:29;62.67;;;21.40;;
5277;SDS011;2662;51.194;6.614;2023-01-26T04:39:56;61.63;;;20.10;;
5277;SDS011;2662;51.194;6.614;2023-01-26T04:42:23;65.67;;;20.80;;
5277;SDS011;2662;51.194;6.614;2023-01-26T04:44:50;65.53;;;19.63;;
5277;SDS011;2662;51.194;6.614;2023-01-26T04:47:17;67.07;;;21.70;;
5277;SDS011;2662;51.194;6.614;2023-01-26T04:49:45;68.13;;;21.37;;
5277;SDS011;2662;51.194;6.614;2023-01-26T04:52:12;64.00;;;20.93;;
5277;SDS011;2662;51.194;6.614;2023-01-26T04:54:39;69.00;;;22.40;;
5277;SDS011;2662;51.194;6.614;2023-01-26T04:57:06;74.13;;;23.43;;
5277;SDS011;2662;51.194;6.614;2023-01-26T04:59:33;76.13;;;23.13;;
5277;SDS011;2662;51.194;6.614;2023-01-26T05:02:00;76.00;;;22.33;;
5277;SDS011;2662;51.194;6.614;2023-01-26T05:04:27;76.47;;;21.43;;
5277;SDS011;2662;51.194;6.614;2023-01-26T05:06:56;75.03;;;23.17;;
5277;SDS011;2662;51.194;6.614;2023-01-26T05:09:22;70.70;;;21.40;;
5277;SDS011;2662;51.194;6.614;2023-01-26T05:11:49;69.00;;;22.30;;
5277;SDS011;2662;51.194;6.614;2023-01-26T05:14:16;72.77;;;23.27;;
5277;SDS011;2662;51.194;6.614;2023-01-26T05:16:42;73.73;;;23.80;;
5277;SDS011;2662;51.194;6.614;2023-01-26T05:19:09;73.57;;;22.20;;
5277;SDS011;2662;51.194;6.614;2023-01-26T05:21:36;66.00;;;21.33;;
5277;SDS011;2662;51.194;6.614;2023-01-26T05:24:04;62.50;;;19.87;;
5277;SDS011;2662;51.194;6.614;2023-01-26T05:26:32;66.30;;;21.47;;
5277;SDS011;2662;51.194;6.614;2023-01-26T05:28:59;67.97;;;21.00;;
5277;SDS011;2662;51.194;6.614;2023-01-26T05:31:25;65.07;;;21.93;;
5277;SDS011;2662;51.194;6.614;2023-01-26T05:33:52;68.60;;;20.90;;
5277;SDS011;2662;51.194;6.614;2023-01-26T05:36:19;66.73;;;20.37;;
5277;SDS011;2662;51.194;6.614;2023-01-26T05:38:45;61.07;;;20.00;;
5277;SDS011;2662;51.194;6.614;2023-01-26T05:41:13;61.93;;;19.17;;
5277;SDS011;2662;51.194;6.614;2023-01-26T05:43:40;69.17;;;21.53;;
5277;SDS011;2662;51.194;6.614;2023-01-26T05:46:07;76.57;;;21.83;;
5277;SDS011;2662;51.194;6.614;2023-01-26T05:48:33;68.20;;;20.07;;
5277;SDS011;2662;51.194;6.614;2023-01-26T05:51:00;58.93;;;19.27;;
5277;SDS011;2662;51.194;6.614;2023-01-26T05:53:27;63.03;;;19.20;;
5277;SDS011;2662;51.194;6.614;2023-01-26T05:55:53;65.00;;;19.67;;
5277;SDS011;2662;51.194;6.614;2023-01-26T05:58:21;58.80;;;19.90;;
5277;SDS011;2662;51.194;6.614;2023-01-26T06:00:48;59.20;;;18.33;;
5277;SDS011;2662;51.194;6.614;2023-01-26T06:03:15;56.07;;;18.20;;
5277;SDS011;2662;51.194;6.614;2023-01-26T06:05:41;51.47;;;18.13;;
5277;SDS011;2662;51.194;6.614;2023-01-26T06:08:08;55.63;;;17.73;;
5277;SDS011;2662;51.194;6.614;2023-01-26T06:10:35;61.10;;;18.40;;
5277;SDS011;2662;51.194;6.614;2023-01-26T06:13:01;58.60;;;17.73;;
5277;SDS011;2662;51.194;6.614;2023-01-26T06:15:29;68.93;;;17.57;;
5277;SDS011;2662;51.194;6.614;2023-01-26T06:17:56;56.63;;;18.27;;
5277;SDS011;2662;51.194;6.614;2023-01-26T06:20:26;58.53;;;17.90;;
5277;SDS011;2662;51.194;6.614;2023-01-26T06:22:52;50.67;;;16.63;;
5277;SDS011;2662;51.194;6.614;2023-01-26T06:25:19;57.43;;;16.07;;
5277;SDS011;2662;51.194;6.614;2023-01-26T06:27:46;54.43;;;17.23;;
5277;SDS011;2662;51.194;6.614;2023-01-26T06:30:12;48.33;;;16.60;;
5277;SDS011;2662;51.194;6.614;2023-01-26T06:32:41;51.07;;;15.70;;
5277;SDS011;2662;51.194;6.614;2023-01-26T06:35:08;52.50;;;16.60;;
5277;SDS011;2662;51.194;6.614;2023-01-26T06:37:34;50.70;;;16.87;;
5277;SDS011;2662;51.194;6.614;2023-01-26T06:40:01;42.23;;;15.17;;
5277;SDS011;2662;51.194;6.614;2023-01-26T06:42:28;54.13;;;17.20;;
5277;SDS011;2662;51.194;6.614;2023-01-26T06:44:55;53.13;;;17.30;;
5277;SDS011;2662;51.194;6.614;2023-01-26T06:47:22;51.40;;;17.37;;
5277;SDS011;2662;51.194;6.614;2023-01-26T06:49:51;45.83;;;15.27;;
5277;SDS011;2662;51.194;6.614;2023-01-26T06:52:20;48.40;;;16.67;;
5277;SDS011;2662;51.194;6.614;2023-01-26T06:54:50;52.00;;;16.47;;
5277;SDS011;2662;51.194;6.614;2023-01-26T06:57:17;44.90;;;15.60;;
5277;SDS011;2662;51.194;6.614;2023-01-26T06:59:44;49.13;;;16.43;;
5277;SDS011;2662;51.194;6.614;2023-01-26T07:02:11;49.33;;;17.30;;
5277;SDS011;2662;51.194;6.614;2023-01-26T07:04:42;48.97;;;15.30;;
5277;SDS011;2662;51.194;6.614;2023-01-26T07:07:10;55.23;;;15.40;;
5277;SDS011;2662;51.194;6.614;2023-01-26T07:09:36;38.30;;;15.30;;
5277;SDS011;2662;51.194;6.614;2023-01-26T07:12:03;47.17;;;15.63;;
5277;SDS011;2662;51.194;6.614;2023-01-26T07:14:30;39.80;;;15.03;;
5277;SDS011;2662;51.194;6.614;2023-01-26T07:16:58;51.80;;;16.00;;
5277;SDS011;2662;51.194;6.614;2023-01-26T07:19:25;46.53;;;16.43;;
5277;SDS011;2662;51.194;6.614;2023-01-26T07:21:54;47.30;;;15.60;;
5277;SDS011;2662;51.194;6.614;2023-01-26T07:24:22;49.40;;;16.10;;
5277;SDS011;2662;51.194;6.614;2023-01-26T07:26:49;47.07;;;14.43;;
5277;SDS011;2662;51.194;6.614;2023-01-26T07:29:16;45.57;;;15.23;;
5277;SDS011;2662;51.194;6.614;2023-01-26T07:31:42;41.17;;;15.67;;
5277;SDS011;2662;51.194;6.614;2023-01-26T07:34:09;44.33;;;13.83;;
5277;SDS011;2662;51.194;6.614;2023-01-26T07:36:36;49.47;;;14.23;;
5277;SDS011;2662;51.194;6.614;2023-01-26T07:39:03;45.10;;;14.60;;
5277;SDS011;2662;51.194;6.614;2023-01-26T07:41:32;53.00;;;16.40;;
5277;SDS011;2662;51.194;6.614;2023-01-26T07:43:59;41.63;;;14.47;;
5277;SDS011;2662;51.194;6.614;2023-01-26T07:46:25;44.83;;;15.37;;
5277;SDS011;2662;51.194;6.614;2023-01-26T07:48:52;44.43;;;15.93;;
5277;SDS011;2662;51.194;6.614;2023-01-26T07:51:19;44.80;;;16.07;;
5277;SDS011;2662;51.194;6.614;2023-01-26T07:53:45;40.90;;;14.80;;
5277;SDS011;2662;51.194;6.614;2023-01-26T07:56:14;50.13;;;14.90;;
5277;SDS011;2662;51.194;6.614;2023-01-26T07:58:48;48.20;;;15.83;;
5277;SDS011;2662;51.194;6.614;2023-01-26T08:01:16;45.47;;;16.00;;
5277;SDS011;2662;51.194;6.614;2023-01-26T08:03:43;44.87;;;15.00;;
5277;SDS011;2662;51.194;6.614;2023-01-26T08:06:10;45.53;;;15.37;;
5277;SDS011;2662;51.194;6.614;2023-01-26T08:08:37;50.00;;;15.30;;
5277;SDS011;2662;51.194;6.614;2023-01-26T08:11:04;56.50;;;16.50;;
5277;SDS011;2662;51.194;6.614;2023-01-26T08:13:32;47.20;;;16.00;;
5277;SDS011;2662;51.194;6.614;2023-01-26T08:16:00;60.33;;;17.20;;
5277;SDS011;2662;51.194;6.614;2023-01-26T08:18:28;47.00;;;16.90;;
5277;SDS011;2662;51.194;6.614;2023-01-26T08:20:56;57.73;;;16.33;;
5277;SDS011;2662;51.194;6.614;2023-01-26T08:23:23;43.60;;;16.00;;
5277;SDS011;2662;51.194;6.614;2023-01-26T08:25:49;51.47;;;16.17;;
5277;SDS011;2662;51.194;6.614;2023-01-26T08:28:16;51.53;;;15.80;;
5277;SDS011;2662;51.194;6.614;2023-01-26T08:30:43;48.10;;;15.87;;
5277;SDS011;2662;51.194;6.614;2023-01-26T08:33:11;49.53;;;16.43;;
5277;SDS011;2662;51.194;6.614;2023-01-26T08:35:38;36.97;;;14.57;;
5277;SDS011;2662;51.194;6.614;2023-01-26T08:38:04;46.13;;;15.20;;
5277;SDS011;2662;51.194;6.614;2023-01-26T08:40:31;54.17;;;16.47;;
5277;SDS011;2662;51.194;6.614;2023-01-26T08:42:58;45.63;;;15.90;;
5277;SDS011;2662;51.194;6.614;2023-01-26T08:45:26;58.23;;;15.97;;
5277;SDS011;2662;51.194;6.614;2023-01-26T08:47:53;55.30;;;17.53;;
5277;SDS011;2662;51.194;6.614;2023-01-26T08:50:21;50.80;;;17.07;;
5277;SDS011;2662;51.194;6.614;2023-01-26T08:52:48;51.03;;;16.63;;
5277;SDS011;2662;51.194;6.614;2023-01-26T08:55:15;52.20;;;17.17;;
5277;SDS011;2662;51.194;6.614;2023-01-26T08:57:42;47.30;;;16.60;;
5277;SDS011;2662;51.194;6.614;2023-01-26T09:00:10;54.47;;;17.40;;
5277;SDS011;2662;51.194;6.614;2023-01-26T09:02:37;42.23;;;15.53;;
5277;SDS011;2662;51.194;6.614;2023-01-26T09:05:04;56.93;;;18.00;;
5277;SDS011;2662;51.194;6.614;2023-01-26T09:07:33;52.83;;;17.37;;
5277;SDS011;2662;51.194;6.614;2023-01-26T09:10:00;48.23;;;17.10;;
5277;SDS011;2662;51.194;6.614;2023-01-26T09:12:26;53.80;;;17.60;;
5277;SDS011;2662;51.194;6.614;2023-01-26T09:14:53;47.93;;;16.67;;
5277;SDS011;2662;51.194;6.614;2023-01-26T09:17:20;63.87;;;19.00;;
5277;SDS011;2662;51.194;6.614;2023-01-26T09:19:46;61.13;;;19.40;;
5277;SDS011;2662;51.194;6.614;2023-01-26T09:22:13;65.93;;;18.90;;
5277;SDS011;2662;51.194;6.614;2023-01-26T09:24:41;59.03;;;19.63;;
5277;SDS011;2662;51.194;6.614;2023-01-26T09:27:08;56.00;;;18.53;;
5277;SDS011;2662;51.194;6.614;2023-01-26T09:29:34;61.90;;;19.53;;
5277;SDS011;2662;51.194;6.614;2023-01-26T09:32:01;71.10;;;20.00;;
5277;SDS011;2662;51.194;6.614;2023-01-26T09:34:28;73.07;;;21.13;;
5277;SDS011;2662;51.194;6.614;2023-01-26T09:36:55;62.57;;;21.20;;
5277;SDS011;2662;51.194;6.614;2023-01-26T09:39:21;63.37;;;19.07;;
5277;SDS011;2662;51.194;6.614;2023-01-26T09:41:53;65.37;;;20.60;;
5277;SDS011;2662;51.194;6.614;2023-01-26T09:44:27;57.97;;;19.70;;
5277;SDS011;2662;51.194;6.614;2023-01-26T09:47:01;58.27;;;19.83;;
5277;SDS011;2662;51.194;6.614;2023-01-26T09:49:35;61.73;;;19.90;;
5277;SDS011;2662;51.194;6.614;2023-01-26T09:52:12;59.40;;;19.33;;
5277;SDS011;2662;51.194;6.614;2023-01-26T09:54:45;63.10;;;20.73;;
5277;SDS011;2662;51.194;6.614;2023-01-26T09:57:16;71.00;;;20.80;;
5277;SDS011;2662;51.194;6.614;2023-01-26T09:59:49;53.97;;;18.90;;
5277;SDS011;2662;51.194;6.614;2023-01-26T10:05:11;58.50;;;18.00;;
5277;SDS011;2662;51.194;6.614;2023-01-26T10:07:41;58.00;;;18.83;;
5277;SDS011;2662;51.194;6.614;2023-01-26T10:10:12;53.07;;;17.50;;
5277;SDS011;2662;51.194;6.614;2023-01-26T10:12:42;51.43;;;17.50;;
5277;SDS011;2662;51.194;6.614;2023-01-26T10:15:14;50.97;;;17.10;;
5277;SDS011;2662;51.194;6.614;2023-01-26T10:17:52;53.30;;;17.17;;
5277;SDS011;2662;51.194;6.614;2023-01-26T10:20:21;54.67;;;18.80;;
5277;SDS011;2662;51.194;6.614;2023-01-26T10:22:53;49.60;;;18.00;;
5277;SDS011;2662;51.194;6.614;2023-01-26T10:25:22;52.40;;;17.40;;
5277;SDS011;2662;51.194;6.614;2023-01-26T10:27:55;49.47;;;17.47;;
5277;SDS011;2662;51.194;6.614;2023-01-26T10:30:22;53.07;;;17.20;;
5277;SDS011;2662;51.194;6.614;2023-01-26T10:32:50;50.67;;;16.50;;
5277;SDS011;2662;51.194;6.614;2023-01-26T10:35:18;46.77;;;16.00;;
5277;SDS011;2662;51.194;6.614;2023-01-26T10:37:46;47.60;;;16.70;;
5277;SDS011;2662;51.194;6.614;2023-01-26T10:40:14;39.93;;;15.00;;
5277;SDS011;2662;51.194;6.614;2023-01-26T10:42:41;44.63;;;15.47;;
5277;SDS011;2662;51.194;6.614;2023-01-26T10:45:25;39.77;;;13.57;;
5277;SDS011;2662;51.194;6.614;2023-01-26T10:48:04;42.10;;;14.73;;
5277;SDS011;2662;51.194;6.614;2023-01-26T10:50:37;41.03;;;12.90;;
5277;SDS011;2662;51.194;6.614;2023-01-26T10:53:04;38.50;;;13.57;;
5277;SDS011;2662;51.194;6.614;2023-01-26T10:55:31;37.87;;;12.40;;
5277;SDS011;2662;51.194;6.614;2023-01-26T10:58:00;35.47;;;12.17;;
5277;SDS011;2662;51.194;6.614;2023-01-26T11:00:29;26.90;;;11.20;;
5277;SDS011;2662;51.194;6.614;2023-01-26T11:02:58;36.33;;;11.13;;
5277;SDS011;2662;51.194;6.614;2023-01-26T11:05:31;39.17;;;12.33;;
5277;SDS011;2662;51.194;6.614;2023-01-26T11:07:58;37.60;;;13.00;;
5277;SDS011;2662;51.194;6.614;2023-01-26T11:10:28;31.20;;;11.50;;
5277;SDS011;2662;51.194;6.614;2023-01-26T11:13:07;28.37;;;11.13;;
5277;SDS011;2662;51.194;6.614;2023-01-26T11:15:40;30.93;;;11.00;;
5277;SDS011;2662;51.194;6.614;2023-01-26T11:18:14;28.93;;;11.03;;
5277;SDS011;2662;51.194;6.614;2023-01-26T11:20:56;20.97;;;10.47;;
5277;SDS011;2662;51.194;6.614;2023-01-26T11:26:16;21.27;;;8.70;;
5277;SDS011;2662;51.194;6.614;2023-01-26T11:28:57;18.07;;;9.00;;
5277;SDS011;2662;51.194;6.614;2023-01-26T11:31:40;23.93;;;8.50;;
5277;SDS011;2662;51.194;6.614;2023-01-26T11:34:19;20.60;;;8.43;;
5277;SDS011;2662;51.194;6.614;2023-01-26T11:36:54;21.73;;;9.10;;
5277;SDS011;2662;51.194;6.614;2023-01-26T11:39:33;26.40;;;8.50;;
5277;SDS011;2662;51.194;6.614;2023-01-26T11:42:12;14.90;;;7.37;;
5277;SDS011;2662;51.194;6.614;2023-01-26T11:44:52;19.33;;;8.60;;
5277;SDS011;2662;51.194;6.614;2023-01-26T11:47:40;20.60;;;8.70;;
5277;SDS011;2662;51.194;6.614;2023-01-26T11:50:20;18.77;;;8.40;;
5277;SDS011;2662;51.194;6.614;2023-01-26T11:52:57;17.83;;;7.70;;
5277;SDS011;2662;51.194;6.614;2023-01-26T11:55:57;17.60;;;7.80;;
5277;SDS011;2662;51.194;6.614;2023-01-26T11:58:38;21.77;;;8.70;;
5277;SDS011;2662;51.194;6.614;2023-01-26T12:01:10;18.43;;;7.13;;
5277;SDS011;2662;51.194;6.614;2023-01-26T12:03:47;15.57;;;6.53;;
5277;SDS011;2662;51.194;6.614;2023-01-26T12:06:16;9.03;;;5.60;;
5277;SDS011;2662;51.194;6.614;2023-01-26T12:08:46;14.80;;;6.70;;
5277;SDS011;2662;51.194;6.614;2023-01-26T12:11:18;18.60;;;6.37;;
5277;SDS011;2662;51.194;6.614;2023-01-26T12:13:58;17.73;;;6.30;;
5277;SDS011;2662;51.194;6.614;2023-01-26T12:16:34;14.33;;;5.70;;
5277;SDS011;2662;51.194;6.614;2023-01-26T12:19:10;14.00;;;6.50;;
5277;SDS011;2662;51.194;6.614;2023-01-26T12:21:42;10.73;;;5.80;;
5277;SDS011;2662;51.194;6.614;2023-01-26T12:24:11;9.57;;;5.30;;
5277;SDS011;2662;51.194;6.614;2023-01-26T12:26:46;11.57;;;4.90;;
5277;SDS011;2662;51.194;6.614;2023-01-26T12:29:18;11.13;;;5.00;;
5277;SDS011;2662;51.194;6.614;2023-01-26T12:31:48;10.73;;;4.80;;
5277;SDS011;2662;51.194;6.614;2023-01-26T12:34:22;14.30;;;5.13;;
5277;SDS011;2662;51.194;6.614;2023-01-26T12:36:54;14.00;;;5.40;;
5277;SDS011;2662;51.194;6.614;2023-01-26T12:39:30;10.20;;;4.63;;
5277;SDS011;2662;51.194;6.614;2023-01-26T12:42:02;16.73;;;5.97;;
5277;SDS011;2662;51.194;6.614;2023-01-26T12:44:43;11.90;;;5.20;;
5277;SDS011;2662;51.194;6.614;2023-01-26T12:47:13;14.80;;;5.70;;
5277;SDS011;2662;51.194;6.614;2023-01-26T12:49:49;12.70;;;5.83;;
5277;SDS011;2662;51.194;6.614;2023-01-26T12:52:22;11.40;;;5.80;;
5277;SDS011;2662;51.194;6.614;2023-01-26T12:54:56;11.23;;;5.70;;
5277;SDS011;2662;51.194;6.614;2023-01-26T12:57:30;9.33;;;5.60;;
5277;SDS011;2662;51.194;6.614;2023-01-26T13:00:03;13.33;;;5.27;;
5277;SDS011;2662;51.194;6.614;2023-01-26T13:02:33;11.10;;;5.20;;
5277;SDS011;2662;51.194;6.614;2023-01-26T13:05:03;8.33;;;4.00;;
5277;SDS011;2662;51.194;6.614;2023-01-26T13:07:33;11.53;;;4.60;;
5277;SDS011;2662;51.194;6.614;2023-01-26T13:10:08;4.87;;;3.47;;
5277;SDS011;2662;51.194;6.614;2023-01-26T13:12:54;9.60;;;3.90;;
5277;SDS011;2662;51.194;6.614;2023-01-26T13:15:25;9.20;;;4.37;;
5277;SDS011;2662;51.194;6.614;2023-01-26T13:17:55;11.97;;;3.80;;
5277;SDS011;2662;51.194;6.614;2023-01-26T13:29:26;7.23;;;4.43;;
5277;SDS011;2662;51.194;6.614;2023-01-26T13:31:56;8.60;;;5.20;;
5277;SDS011;2662;51.194;6.614;2023-01-26T13:34:25;11.27;;;5.57;;
5277;SDS011;2662;51.194;6.614;2023-01-26T13:36:57;17.07;;;4.93;;
5277;SDS011;2662;51.194;6.614;2023-01-26T13:39:29;11.77;;;5.00;;
5277;SDS011;2662;51.194;6.614;2023-01-26T13:41:59;16.80;;;6.63;;
5277;SDS011;2662;51.194;6.614;2023-01-26T13:44:28;24.20;;;7.27;;
5277;SDS011;2662;51.194;6.614;2023-01-26T13:47:04;16.70;;;6.90;;
5277;SDS011;2662;51.194;6.614;2023-01-26T13:49:36;24.10;;;7.20;;
5277;SDS011;2662;51.194;6.614;2023-01-26T13:52:13;14.50;;;6.57;;
5277;SDS011;2662;51.194;6.614;2023-01-26T13:54:42;15.17;;;7.20;;
5277;SDS011;2662;51.194;6.614;2023-01-26T13:57:10;18.70;;;7.33;;
5277;SDS011;2662;51.194;6.614;2023-01-26T13:59:46;17.50;;;7.20;;
5277;SDS011;2662;51.194;6.614;2023-01-26T14:02:20;18.17;;;6.90;;
5277;SDS011;2662;51.194;6.614;2023-01-26T14:04:49;18.97;;;7.40;;
5277;SDS011;2662;51.194;6.614;2023-01-26T14:07:18;19.57;;;8.97;;
5277;SDS011;2662;51.194;6.614;2023-01-26T14:09:49;22.23;;;7.93;;
5277;SDS011;2662;51.194;6.614;2023-01-26T14:12:18;21.40;;;8.43;;
5277;SDS011;2662;51.194;6.614;2023-01-26T14:14:47;25.20;;;8.67;;
5277;SDS011;2662;51.194;6.614;2023-01-26T14:17:24;22.03;;;9.00;;
5277;SDS011;2662;51.194;6.614;2023-01-26T14:19:53;44.33;;;9.33;;
5277;SDS011;2662;51.194;6.614;2023-01-26T14:22:21;43.63;;;10.23;;
5277;SDS011;2662;51.194;6.614;2023-01-26T14:24:48;44.50;;;11.70;;
5277;SDS011;2662;51.194;6.614;2023-01-26T14:27:22;31.40;;;10.17;;
5277;SDS011;2662;51.194;6.614;2023-01-26T14:29:58;77.80;;;12.50;;
5277;SDS011;2662;51.194;6.614;2023-01-26T14:32:26;44.10;;;10.93;;
5277;SDS011;2662;51.194;6.614;2023-01-26T14:34:54;29.23;;;10.60;;
5277;SDS011;2662;51.194;6.614;2023-01-26T14:37:23;47.07;;;11.87;;
5277;SDS011;2662;51.194;6.614;2023-01-26T14:42:52;53.50;;;12.97;;
5277;SDS011;2662;51.194;6.614;2023-01-26T14:45:21;42.07;;;12.43;;
5277;SDS011;2662;51.194;6.614;2023-01-26T14:47:57;44.10;;;12.53;;
5277;SDS011;2662;51.194;6.614;2023-01-26T14:50:26;42.20;;;12.03;;
5277;SDS011;2662;51.194;6.614;2023-01-26T14:52:57;57.03;;;14.20;;
5277;SDS011;2662;51.194;6.614;2023-01-26T14:55:25;54.23;;;15.30;;
5277;SDS011;2662;51.194;6.614;2023-01-26T14:57:54;50.33;;;14.77;;
5277;SDS011;2662;51.194;6.614;2023-01-26T15:00:23;58.93;;;16.03;;
5277;SDS011;2662;51.194;6.614;2023-01-26T15:02:53;52.80;;;13.43;;
5277;SDS011;2662;51.194;6.614;2023-01-26T15:05:22;81.43;;;14.50;;
5277;SDS011;2662;51.194;6.614;2023-01-26T15:07:58;50.87;;;15.10;;
5277;SDS011;2662;51.194;6.614;2023-01-26T15:10:28;49.23;;;13.27;;
5277;SDS011;2662;51.194;6.614;2023-01-26T15:12:59;53.03;;;13.30;;
5277;SDS011;2662;51.194;6.614;2023-01-26T15:15:31;61.53;;;14.87;;
5277;SDS011;2662;51.194;6.614;2023-01-26T15:18:01;57.80;;;14.90;;
5277;SDS011;2662;51.194;6.614;2023-01-26T15:20:39;54.63;;;13.70;;
5277;SDS011;2662;51.194;6.614;2023-01-26T15:23:19;56.93;;;14.60;;
5277;SDS011;2662;51.194;6.614;2023-01-26T15:25:49;59.77;;;14.43;;